Toledo, OH (43601)

4:38 AM EDT on July 31, 2016 (GMT -0400)
Broadway/Foraker | | Change Station

Elev 620 ft 41.62 °N, 83.57 °W | Updated 1 minute ago

Mostly Cloudy
Mostly Cloudy
68.4 °F
Feels Like 68.4 °F
N
2.7
Wind Variable Wind from ENE

Today
High -- | Low -- °F
--% Chance of Precip.
Yesterday
High -- | Low -- °F
Precip. -- in
Pressure 29.95 in
Visibility 8.0 miles
Clouds Few 2500 ft
Mostly Cloudy 3500 ft
Dew Point 66 °F
Humidity 93%
Rainfall 0.00 in
Snow Depth Not available.
6:28 AM 8:52 PM
Waning Crescent, 8% visible
METAR KTDZ 310753Z AUTO 34004KT 8SM FEW025 BKN035 21/21 A2996 RMK AO2 SLP141 T02110206
Pressure 29.95 in
Visibility 8.0 miles
Clouds Few 2500 ft
Mostly Cloudy 3500 ft
Dew Point 66 °F
Humidity 93%
Rainfall 0.00 in
Snow Depth Not available.
6:28 AM 8:52 PM
Waning Crescent, 8% visible
METAR KTDZ 310753Z AUTO 34004KT 8SM FEW025 BKN035 21/21 A2996 RMK AO2 SLP141 T02110206

10-Day Weather Forecast

Almanac

Astronomy

Jul. 31, 2016 Rise Set
Actual Time
Civil Twilight
Nautical Twilight
Astronomical Twilight
Moon
Length of Visible Light
Length of Day
Tomorrow will be .
, % of the Moon is Illuminated

Today's Extremes

State Highs State Lows

Community

WunderPhotos

Upload Photos

1,928,768 photos uploaded!

WunderBlog® & News

Nearby

Air Quality

  Air Quality AQ Index Pollutant
Not available.

Snow Depth

Station Depth Elevation

Earthquake Activity

City Distance Mag. Time & Date
Minimum magnitude displayed is 2.5.

Coastal Water Temperatures

Place Temperature

Stations

Nearby Weather Stations

Station Location Temp. Windchill Dew Point Humidity Wind Precip. Elev Updated Type
                   

Watches & Warnings

There are currently no watches in effect.